DLH31Y LFBD-EDDF
Flight info
| Callsign | DLH31Y |
|---|---|
| Flight time | 1h 26m |
| Altitude | 36000 |
| Route | CNA DCT ADABI DCT BOKNO DCT DIBES DCT VIQAQ DCT TSU UN858 OQQAL DCT RANUX/N0457F350 DCT VALEK DCT LUTAX UM163 DIK T856 NIVNU T847 IMCOM IMCOM1B |
| Aircraft | A319/M-SDE3FGHIRWY/LB1 |
Departure
| Time | 2026-05-06 19:45 |
|---|---|
| Airport | Bordeaux–Mérignac Airport (LFBD) |
Arrival
| Time | 2026-05-06 21:11 |
|---|---|
| Airport | Frankfurt Main Airport (EDDF) |
| Time | Latitude | Longitude | Altitude | Speed | Heading |
|---|---|---|---|---|---|
| 2026-05-06 19:10 | 44.83041 | -0.70542 | 163 ft | 0 kts | 134° |
| 2026-05-06 19:10 | 44.83151 | -0.70435 | 163 ft | 0 kts | 174° |
| 2026-05-06 19:11 | 44.83171 | -0.70419 | 163 ft | 0 kts | 164° |
| 2026-05-06 19:11 | 44.83128 | -0.70452 | 163 ft | 0 kts | 113° |
| 2026-05-06 19:35 | 44.83128 | -0.70453 | 164 ft | 1 kts | 113° |
| 2026-05-06 19:35 | 44.83138 | -0.70485 | 163 ft | 4 kts | 113° |
| 2026-05-06 19:36 | 44.83147 | -0.70515 | 163 ft | 4 kts | 119° |
| 2026-05-06 19:36 | 44.83160 | -0.70531 | 162 ft | 4 kts | 199° |
| 2026-05-06 19:36 | 44.83177 | -0.70517 | 162 ft | 0 kts | 223° |
| 2026-05-06 19:36 | 44.83161 | -0.70530 | 162 ft | 4 kts | 199° |
| 2026-05-06 19:37 | 44.83146 | -0.70514 | 163 ft | 4 kts | 122° |
| 2026-05-06 19:37 | 44.83144 | -0.70507 | 163 ft | 4 kts | 116° |
| 2026-05-06 19:37 | 44.83158 | -0.70529 | 162 ft | 4 kts | 186° |
| 2026-05-06 19:37 | 44.83172 | -0.70522 | 162 ft | 4 kts | 221° |
| 2026-05-06 19:38 | 44.83178 | -0.70514 | 162 ft | 1 kts | 224° |
| 2026-05-06 19:40 | 44.83165 | -0.70532 | 162 ft | 6 kts | 224° |
| 2026-05-06 19:40 | 44.83122 | -0.70593 | 162 ft | 12 kts | 226° |
| 2026-05-06 19:40 | 44.83052 | -0.70700 | 162 ft | 18 kts | 227° |
| 2026-05-06 19:41 | 44.82967 | -0.70792 | 162 ft | 16 kts | 209° |
| 2026-05-06 19:41 | 44.82903 | -0.70758 | 162 ft | 14 kts | 108° |
| 2026-05-06 19:41 | 44.82875 | -0.70615 | 162 ft | 16 kts | 105° |
| 2026-05-06 19:41 | 44.82837 | -0.70440 | 162 ft | 21 kts | 106° |
| 2026-05-06 19:42 | 44.82792 | -0.70224 | 162 ft | 23 kts | 106° |
| 2026-05-06 19:42 | 44.82745 | -0.70003 | 162 ft | 21 kts | 106° |
| 2026-05-06 19:42 | 44.82680 | -0.69945 | 162 ft | 0 kts | 194° |
| 2026-05-06 19:42 | 44.82674 | -0.69946 | 162 ft | 2 kts | 194° |
| 2026-05-06 19:43 | 44.82640 | -0.69959 | 162 ft | 8 kts | 194° |
| 2026-05-06 19:43 | 44.82578 | -0.69987 | 164 ft | 11 kts | 208° |
| 2026-05-06 19:43 | 44.82560 | -0.70100 | 165 ft | 15 kts | 286° |
| 2026-05-06 19:43 | 44.82563 | -0.70113 | 165 ft | 0 kts | 287° |
| 2026-05-06 19:44 | 44.82563 | -0.70116 | 165 ft | 2 kts | 287° |
| 2026-05-06 19:44 | 44.82619 | -0.70378 | 165 ft | 68 kts | 287° |
| 2026-05-06 19:45 | 44.82825 | -0.71355 | 157 ft | 137 kts | 287° |
| 2026-05-06 19:45 | 44.83107 | -0.72708 | 709 ft | 141 kts | 287° |
| 2026-05-06 19:45 | 44.83530 | -0.73949 | 1376 ft | 143 kts | 311° |
| 2026-05-06 19:45 | 44.84391 | -0.74812 | 1854 ft | 164 kts | 328° |
| 2026-05-06 19:46 | 44.85442 | -0.75675 | 2276 ft | 186 kts | 329° |
| 2026-05-06 19:46 | 44.86623 | -0.76643 | 2722 ft | 207 kts | 330° |
| 2026-05-06 19:46 | 44.87947 | -0.77732 | 3194 ft | 232 kts | 329° |
| 2026-05-06 19:46 | 44.89389 | -0.78922 | 3975 ft | 245 kts | 329° |
| 2026-05-06 19:47 | 44.90903 | -0.80083 | 4985 ft | 251 kts | 338° |
| 2026-05-06 19:47 | 44.92626 | -0.80569 | 5974 ft | 258 kts | 358° |
| 2026-05-06 19:47 | 44.94409 | -0.80110 | 6933 ft | 267 kts | 19° |
| 2026-05-06 19:47 | 44.96113 | -0.78995 | 7885 ft | 272 kts | 23° |
| 2026-05-06 19:48 | 44.97832 | -0.77836 | 8832 ft | 277 kts | 23° |
| 2026-05-06 19:48 | 44.99587 | -0.76652 | 9781 ft | 282 kts | 24° |
| 2026-05-06 19:48 | 45.01387 | -0.75437 | 10418 ft | 297 kts | 24° |
| 2026-05-06 19:48 | 45.03302 | -0.74146 | 10753 ft | 320 kts | 24° |
| 2026-05-06 19:49 | 45.05389 | -0.72738 | 11033 ft | 344 kts | 24° |
| 2026-05-06 19:49 | 45.07600 | -0.71247 | 11514 ft | 358 kts | 24° |
| 2026-05-06 19:49 | 45.09864 | -0.69712 | 12237 ft | 364 kts | 24° |
| 2026-05-06 19:49 | 45.12160 | -0.68139 | 12999 ft | 368 kts | 24° |
| 2026-05-06 19:50 | 45.14479 | -0.66542 | 13756 ft | 373 kts | 25° |
| 2026-05-06 19:50 | 45.16825 | -0.64925 | 14445 ft | 377 kts | 25° |
| 2026-05-06 19:50 | 45.19198 | -0.63289 | 15155 ft | 380 kts | 24° |
| 2026-05-06 19:50 | 45.21586 | -0.61642 | 15875 ft | 383 kts | 24° |
| 2026-05-06 19:51 | 45.23993 | -0.59987 | 16569 ft | 386 kts | 24° |
| 2026-05-06 19:51 | 45.26417 | -0.58321 | 17260 ft | 389 kts | 24° |
| 2026-05-06 19:51 | 45.28863 | -0.56635 | 17962 ft | 392 kts | 24° |
| 2026-05-06 19:51 | 45.31327 | -0.54935 | 18599 ft | 395 kts | 24° |
| 2026-05-06 19:52 | 45.33812 | -0.53220 | 19188 ft | 398 kts | 24° |
| 2026-05-06 19:52 | 45.36311 | -0.51491 | 19762 ft | 401 kts | 24° |
| 2026-05-06 19:52 | 45.38830 | -0.49743 | 20330 ft | 404 kts | 24° |
| 2026-05-06 19:52 | 45.41374 | -0.47975 | 20886 ft | 407 kts | 24° |
| 2026-05-06 19:53 | 45.43928 | -0.46200 | 21415 ft | 410 kts | 24° |
| 2026-05-06 19:53 | 45.46503 | -0.44411 | 21938 ft | 413 kts | 24° |
| 2026-05-06 19:53 | 45.49100 | -0.42606 | 22461 ft | 416 kts | 24° |
| 2026-05-06 19:53 | 45.51717 | -0.40785 | 22960 ft | 419 kts | 24° |
| 2026-05-06 19:54 | 45.54352 | -0.38950 | 23459 ft | 422 kts | 23° |
| 2026-05-06 19:54 | 45.57003 | -0.37102 | 23882 ft | 425 kts | 23° |
| 2026-05-06 19:54 | 45.59632 | -0.35264 | 24280 ft | 429 kts | 24° |
| 2026-05-06 19:54 | 45.62357 | -0.33357 | 24684 ft | 432 kts | 24° |
| 2026-05-06 19:55 | 45.65067 | -0.31461 | 25085 ft | 435 kts | 24° |
| 2026-05-06 19:55 | 45.67789 | -0.29556 | 25488 ft | 437 kts | 24° |
| 2026-05-06 19:55 | 45.70496 | -0.27657 | 25888 ft | 440 kts | 24° |
| 2026-05-06 19:55 | 45.73247 | -0.25722 | 26282 ft | 442 kts | 24° |
| 2026-05-06 19:56 | 45.76016 | -0.23773 | 26663 ft | 445 kts | 24° |
| 2026-05-06 19:56 | 45.78803 | -0.21812 | 27035 ft | 447 kts | 24° |
| 2026-05-06 19:56 | 45.81607 | -0.19839 | 27391 ft | 450 kts | 24° |
| 2026-05-06 19:56 | 45.84463 | -0.17830 | 27758 ft | 453 kts | 24° |
| 2026-05-06 19:57 | 45.87261 | -0.15857 | 28110 ft | 455 kts | 24° |
| 2026-05-06 19:57 | 45.90111 | -0.13842 | 28456 ft | 458 kts | 24° |
| 2026-05-06 19:57 | 45.92976 | -0.11807 | 28795 ft | 460 kts | 24° |
| 2026-05-06 19:57 | 45.95845 | -0.09768 | 29219 ft | 460 kts | 24° |
| 2026-05-06 19:58 | 45.98715 | -0.07728 | 29717 ft | 459 kts | 24° |
| 2026-05-06 19:58 | 46.01576 | -0.05693 | 30171 ft | 459 kts | 24° |
| 2026-05-06 19:58 | 46.03477 | -0.04341 | 30453 ft | 458 kts | 24° |
| 2026-05-06 19:58 | 46.06364 | -0.02285 | 30896 ft | 457 kts | 24° |
| 2026-05-06 19:59 | 46.09174 | -0.00286 | 31356 ft | 455 kts | 24° |
| 2026-05-06 19:59 | 46.12005 | 0.01730 | 31890 ft | 451 kts | 24° |
| 2026-05-06 19:59 | 46.14811 | 0.03733 | 32383 ft | 449 kts | 24° |
| 2026-05-06 19:59 | 46.17609 | 0.05733 | 32846 ft | 448 kts | 24° |
| 2026-05-06 20:00 | 46.20399 | 0.07727 | 33280 ft | 447 kts | 24° |
| 2026-05-06 20:00 | 46.23182 | 0.09714 | 33729 ft | 446 kts | 24° |
| 2026-05-06 20:00 | 46.25953 | 0.11697 | 34141 ft | 445 kts | 24° |
| 2026-05-06 20:00 | 46.28731 | 0.13693 | 34468 ft | 445 kts | 24° |
| 2026-05-06 20:01 | 46.31501 | 0.15692 | 34769 ft | 446 kts | 24° |
| 2026-05-06 20:01 | 46.34287 | 0.17705 | 35054 ft | 447 kts | 24° |
| 2026-05-06 20:01 | 46.37074 | 0.19714 | 35330 ft | 448 kts | 24° |
| 2026-05-06 20:01 | 46.39869 | 0.21725 | 35595 ft | 449 kts | 24° |
| 2026-05-06 20:02 | 46.42671 | 0.23747 | 35843 ft | 451 kts | 25° |
| 2026-05-06 20:02 | 46.45482 | 0.25778 | 35954 ft | 452 kts | 25° |
| 2026-05-06 20:02 | 46.51082 | 0.29839 | 35975 ft | 453 kts | 25° |
| 2026-05-06 20:03 | 46.56711 | 0.33931 | 35976 ft | 453 kts | 25° |
| 2026-05-06 20:03 | 46.62352 | 0.38032 | 35976 ft | 453 kts | 25° |
| 2026-05-06 20:04 | 46.67982 | 0.42139 | 35977 ft | 453 kts | 25° |
| 2026-05-06 20:04 | 46.73619 | 0.46252 | 35975 ft | 453 kts | 25° |
| 2026-05-06 20:05 | 46.79252 | 0.50385 | 35977 ft | 453 kts | 25° |
| 2026-05-06 20:05 | 46.84892 | 0.54535 | 35978 ft | 453 kts | 25° |
| 2026-05-06 20:06 | 46.90524 | 0.58683 | 35979 ft | 453 kts | 25° |
| 2026-05-06 20:06 | 46.96157 | 0.62831 | 35979 ft | 453 kts | 25° |
| 2026-05-06 20:07 | 47.01744 | 0.66978 | 35988 ft | 453 kts | 25° |
| 2026-05-06 20:07 | 47.07325 | 0.71281 | 35986 ft | 454 kts | 28° |
| 2026-05-06 20:08 | 47.12735 | 0.76073 | 35991 ft | 454 kts | 30° |
| 2026-05-06 20:08 | 47.18077 | 0.81035 | 35998 ft | 454 kts | 30° |
| 2026-05-06 20:09 | 47.23451 | 0.85927 | 35998 ft | 454 kts | 30° |
| 2026-05-06 20:09 | 47.28859 | 0.90751 | 35995 ft | 454 kts | 30° |
| 2026-05-06 20:10 | 47.34268 | 0.95578 | 35983 ft | 454 kts | 30° |
| 2026-05-06 20:10 | 47.39668 | 1.00438 | 35983 ft | 454 kts | 30° |
| 2026-05-06 20:11 | 47.45062 | 1.05323 | 35982 ft | 454 kts | 30° |
| 2026-05-06 20:11 | 47.50420 | 1.10170 | 35983 ft | 454 kts | 30° |
| 2026-05-06 20:12 | 47.55928 | 1.14763 | 35975 ft | 454 kts | 26° |
| 2026-05-06 20:12 | 47.61554 | 1.19004 | 35982 ft | 453 kts | 25° |
| 2026-05-06 20:13 | 47.67172 | 1.23272 | 35978 ft | 453 kts | 26° |
| 2026-05-06 20:13 | 47.72754 | 1.27643 | 35981 ft | 453 kts | 26° |
| 2026-05-06 20:14 | 47.78292 | 1.32038 | 35978 ft | 454 kts | 27° |
| 2026-05-06 20:14 | 47.83867 | 1.36459 | 35972 ft | 454 kts | 26° |
| 2026-05-06 20:15 | 47.89445 | 1.40867 | 35971 ft | 454 kts | 26° |
| 2026-05-06 20:15 | 47.95027 | 1.45286 | 35974 ft | 454 kts | 26° |
| 2026-05-06 20:16 | 48.00603 | 1.49710 | 35978 ft | 454 kts | 27° |
| 2026-05-06 20:16 | 48.06181 | 1.54152 | 35974 ft | 454 kts | 27° |
| 2026-05-06 20:17 | 48.11755 | 1.58596 | 35973 ft | 454 kts | 27° |
| 2026-05-06 20:17 | 48.17322 | 1.63060 | 35972 ft | 454 kts | 27° |
| 2026-05-06 20:18 | 48.22897 | 1.67547 | 35973 ft | 454 kts | 27° |
| 2026-05-06 20:18 | 48.28470 | 1.72037 | 35974 ft | 454 kts | 27° |
| 2026-05-06 20:19 | 48.34014 | 1.76507 | 35961 ft | 455 kts | 27° |
| 2026-05-06 20:19 | 48.39591 | 1.81015 | 35961 ft | 455 kts | 27° |
| 2026-05-06 20:20 | 48.45171 | 1.85540 | 35966 ft | 456 kts | 27° |
| 2026-05-06 20:20 | 48.50871 | 1.90170 | 35961 ft | 456 kts | 27° |
| 2026-05-06 20:21 | 48.56336 | 1.94623 | 35968 ft | 456 kts | 27° |
| 2026-05-06 20:21 | 48.61919 | 1.99184 | 35969 ft | 456 kts | 27° |
| 2026-05-06 20:22 | 48.67499 | 2.03757 | 35982 ft | 456 kts | 27° |
| 2026-05-06 20:22 | 48.72673 | 2.09260 | 35973 ft | 458 kts | 44° |
| 2026-05-06 20:23 | 48.76329 | 2.17134 | 35968 ft | 460 kts | 64° |
| 2026-05-06 20:23 | 48.78297 | 2.26366 | 35961 ft | 461 kts | 74° |
| 2026-05-06 20:24 | 48.79969 | 2.35695 | 35958 ft | 462 kts | 74° |
| 2026-05-06 20:24 | 48.81650 | 2.45116 | 35958 ft | 462 kts | 74° |
| 2026-05-06 20:25 | 48.83328 | 2.54558 | 35980 ft | 463 kts | 75° |
| 2026-05-06 20:25 | 48.84997 | 2.64013 | 35962 ft | 463 kts | 75° |
| 2026-05-06 20:26 | 48.86655 | 2.73467 | 35965 ft | 463 kts | 75° |
| 2026-05-06 20:26 | 48.88313 | 2.82926 | 35957 ft | 463 kts | 75° |
| 2026-05-06 20:27 | 48.89950 | 2.92328 | 35960 ft | 463 kts | 75° |
| 2026-05-06 20:27 | 48.91584 | 3.01805 | 35959 ft | 463 kts | 75° |
| 2026-05-06 20:28 | 48.93219 | 3.11292 | 35959 ft | 463 kts | 75° |
| 2026-05-06 20:28 | 48.94840 | 3.20773 | 35958 ft | 463 kts | 75° |
| 2026-05-06 20:29 | 48.96452 | 3.30274 | 35959 ft | 463 kts | 75° |
| 2026-05-06 20:29 | 48.98064 | 3.39775 | 35956 ft | 463 kts | 75° |
| 2026-05-06 20:30 | 49.00460 | 3.53969 | 35954 ft | 463 kts | 76° |
| 2026-05-06 20:31 | 49.02044 | 3.63486 | 35957 ft | 463 kts | 76° |
| 2026-05-06 20:31 | 49.03620 | 3.73010 | 35953 ft | 463 kts | 76° |
| 2026-05-06 20:32 | 49.05190 | 3.82537 | 35950 ft | 463 kts | 76° |
| 2026-05-06 20:32 | 49.06751 | 3.92077 | 35948 ft | 463 kts | 76° |
| 2026-05-06 20:33 | 49.08312 | 4.01612 | 35946 ft | 463 kts | 76° |
| 2026-05-06 20:33 | 49.09867 | 4.11171 | 35943 ft | 463 kts | 76° |
| 2026-05-06 20:34 | 49.11410 | 4.20713 | 35946 ft | 463 kts | 76° |
| 2026-05-06 20:34 | 49.12942 | 4.30262 | 35946 ft | 463 kts | 76° |
| 2026-05-06 20:35 | 49.14829 | 4.39665 | 35946 ft | 463 kts | 67° |
| 2026-05-06 20:35 | 49.17314 | 4.48750 | 35934 ft | 464 kts | 68° |
| 2026-05-06 20:36 | 49.19769 | 4.57805 | 35935 ft | 464 kts | 68° |
| 2026-05-06 20:36 | 49.22226 | 4.66938 | 35931 ft | 464 kts | 68° |
| 2026-05-06 20:37 | 49.24674 | 4.76086 | 35935 ft | 464 kts | 68° |
| 2026-05-06 20:37 | 49.27122 | 4.85237 | 35930 ft | 464 kts | 68° |
| 2026-05-06 20:38 | 49.29568 | 4.94387 | 35923 ft | 464 kts | 68° |
| 2026-05-06 20:38 | 49.31991 | 5.03499 | 35920 ft | 465 kts | 68° |
| 2026-05-06 20:39 | 49.34416 | 5.12690 | 35915 ft | 465 kts | 68° |
| 2026-05-06 20:39 | 49.36835 | 5.21887 | 35912 ft | 465 kts | 68° |
| 2026-05-06 20:40 | 49.39255 | 5.31100 | 35918 ft | 465 kts | 68° |
| 2026-05-06 20:40 | 49.41670 | 5.40327 | 35912 ft | 466 kts | 69° |
| 2026-05-06 20:41 | 49.44066 | 5.49576 | 35911 ft | 466 kts | 69° |
| 2026-05-06 20:41 | 49.46459 | 5.58845 | 35907 ft | 466 kts | 69° |
| 2026-05-06 20:42 | 49.48836 | 5.68060 | 35912 ft | 466 kts | 69° |
| 2026-05-06 20:42 | 49.52052 | 5.76703 | 35904 ft | 467 kts | 51° |
| 2026-05-06 20:43 | 49.56830 | 5.83432 | 35904 ft | 467 kts | 33° |
| 2026-05-06 20:43 | 49.62280 | 5.88890 | 35902 ft | 468 kts | 33° |
| 2026-05-06 20:44 | 49.67730 | 5.94388 | 35901 ft | 468 kts | 33° |
| 2026-05-06 20:44 | 49.73188 | 5.99894 | 35901 ft | 469 kts | 33° |
| 2026-05-06 20:45 | 49.78653 | 6.05405 | 35904 ft | 469 kts | 33° |
| 2026-05-06 20:45 | 49.84119 | 6.10919 | 35907 ft | 469 kts | 33° |
| 2026-05-06 20:46 | 49.89892 | 6.15608 | 35904 ft | 469 kts | 24° |
| 2026-05-06 20:46 | 49.95802 | 6.19741 | 35885 ft | 469 kts | 24° |
| 2026-05-06 20:47 | 50.01731 | 6.23999 | 35882 ft | 469 kts | 25° |
| 2026-05-06 20:47 | 50.07637 | 6.28371 | 35883 ft | 469 kts | 25° |
| 2026-05-06 20:48 | 50.12534 | 6.31999 | 35881 ft | 469 kts | 25° |
| 2026-05-06 20:48 | 50.18429 | 6.36371 | 35898 ft | 469 kts | 26° |
| 2026-05-06 20:49 | 50.24300 | 6.40809 | 36011 ft | 469 kts | 26° |
| 2026-05-06 20:49 | 50.30195 | 6.45355 | 36221 ft | 468 kts | 27° |
| 2026-05-06 20:50 | 50.34857 | 6.49137 | 36346 ft | 471 kts | 33° |
| 2026-05-06 20:50 | 50.37304 | 6.52515 | 35818 ft | 471 kts | 52° |
| 2026-05-06 20:50 | 50.38903 | 6.56963 | 34967 ft | 470 kts | 73° |
| 2026-05-06 20:50 | 50.39413 | 6.61922 | 34206 ft | 467 kts | 94° |
| 2026-05-06 20:51 | 50.38798 | 6.66863 | 33377 ft | 462 kts | 112° |
| 2026-05-06 20:51 | 50.37558 | 6.71517 | 32332 ft | 464 kts | 115° |
| 2026-05-06 20:51 | 50.36288 | 6.76176 | 31299 ft | 466 kts | 115° |
| 2026-05-06 20:51 | 50.35009 | 6.80850 | 30309 ft | 467 kts | 116° |
| 2026-05-06 20:52 | 50.33484 | 6.85329 | 29176 ft | 467 kts | 121° |
| 2026-05-06 20:52 | 50.31944 | 6.89834 | 27862 ft | 471 kts | 117° |
| 2026-05-06 20:52 | 50.30600 | 6.94528 | 26469 ft | 476 kts | 114° |
| 2026-05-06 20:52 | 50.29357 | 6.99354 | 25074 ft | 480 kts | 112° |
| 2026-05-06 20:53 | 50.28118 | 7.04234 | 23804 ft | 483 kts | 113° |
| 2026-05-06 20:53 | 50.26837 | 7.09061 | 22683 ft | 479 kts | 114° |
| 2026-05-06 20:53 | 50.25492 | 7.13799 | 21646 ft | 474 kts | 116° |
| 2026-05-06 20:53 | 50.24106 | 7.18433 | 20678 ft | 468 kts | 116° |
| 2026-05-06 20:54 | 50.22701 | 7.22989 | 19743 ft | 463 kts | 117° |
| 2026-05-06 20:54 | 50.21304 | 7.27479 | 18863 ft | 457 kts | 117° |
| 2026-05-06 20:54 | 50.19930 | 7.31921 | 18000 ft | 453 kts | 116° |
| 2026-05-06 20:54 | 50.18645 | 7.36399 | 17058 ft | 449 kts | 113° |
| 2026-05-06 20:55 | 50.17514 | 7.40892 | 16402 ft | 440 kts | 111° |
| 2026-05-06 20:55 | 50.16505 | 7.45284 | 15854 ft | 432 kts | 110° |
| 2026-05-06 20:55 | 50.15529 | 7.49685 | 15289 ft | 427 kts | 109° |
| 2026-05-06 20:55 | 50.14553 | 7.54050 | 14726 ft | 425 kts | 110° |
| 2026-05-06 20:56 | 50.13561 | 7.58359 | 14175 ft | 421 kts | 111° |
| 2026-05-06 20:56 | 50.12584 | 7.62644 | 13618 ft | 418 kts | 107° |
| 2026-05-06 20:56 | 50.12218 | 7.67086 | 12980 ft | 413 kts | 88° |
| 2026-05-06 20:56 | 50.12471 | 7.71516 | 12264 ft | 409 kts | 83° |
| 2026-05-06 20:57 | 50.12766 | 7.75914 | 11570 ft | 404 kts | 83° |
| 2026-05-06 20:57 | 50.13051 | 7.80263 | 11035 ft | 403 kts | 84° |
| 2026-05-06 20:57 | 50.13355 | 7.84608 | 10852 ft | 403 kts | 84° |
| 2026-05-06 20:57 | 50.13673 | 7.88948 | 10856 ft | 403 kts | 83° |
| 2026-05-06 20:58 | 50.13993 | 7.93293 | 10879 ft | 404 kts | 83° |
| 2026-05-06 20:58 | 50.14313 | 7.97640 | 10880 ft | 404 kts | 84° |
| 2026-05-06 20:58 | 50.14630 | 8.01929 | 10892 ft | 403 kts | 84° |
| 2026-05-06 20:58 | 50.14969 | 8.06326 | 10875 ft | 403 kts | 84° |
| 2026-05-06 20:59 | 50.15305 | 8.10667 | 10885 ft | 403 kts | 84° |
| 2026-05-06 20:59 | 50.15634 | 8.14951 | 10887 ft | 403 kts | 84° |
| 2026-05-06 20:59 | 50.15966 | 8.19285 | 10883 ft | 403 kts | 84° |
| 2026-05-06 20:59 | 50.16299 | 8.23628 | 10888 ft | 403 kts | 84° |
| 2026-05-06 21:00 | 50.16630 | 8.27964 | 10877 ft | 403 kts | 84° |
| 2026-05-06 21:00 | 50.16976 | 8.32309 | 10890 ft | 404 kts | 84° |
| 2026-05-06 21:00 | 50.17324 | 8.36653 | 10890 ft | 404 kts | 84° |
| 2026-05-06 21:00 | 50.17671 | 8.41000 | 10887 ft | 404 kts | 84° |
| 2026-05-06 21:01 | 50.18018 | 8.45347 | 10873 ft | 404 kts | 84° |
| 2026-05-06 21:01 | 50.18363 | 8.49683 | 10812 ft | 401 kts | 84° |
| 2026-05-06 21:01 | 50.18705 | 8.53973 | 10172 ft | 396 kts | 84° |
| 2026-05-06 21:01 | 50.19034 | 8.58125 | 10022 ft | 375 kts | 84° |
| 2026-05-06 21:02 | 50.19347 | 8.62069 | 9899 ft | 356 kts | 84° |
| 2026-05-06 21:02 | 50.19647 | 8.65814 | 9774 ft | 340 kts | 84° |
| 2026-05-06 21:02 | 50.19934 | 8.69394 | 9645 ft | 325 kts | 84° |
| 2026-05-06 21:02 | 50.20214 | 8.72832 | 9511 ft | 312 kts | 84° |
| 2026-05-06 21:03 | 50.20483 | 8.76136 | 9320 ft | 302 kts | 84° |
| 2026-05-06 21:03 | 50.20751 | 8.79362 | 8967 ft | 298 kts | 84° |
| 2026-05-06 21:03 | 50.21013 | 8.82563 | 8584 ft | 296 kts | 84° |
| 2026-05-06 21:03 | 50.21270 | 8.85725 | 8173 ft | 294 kts | 84° |
| 2026-05-06 21:04 | 50.21527 | 8.88896 | 7782 ft | 292 kts | 84° |
| 2026-05-06 21:04 | 50.21617 | 8.92034 | 7377 ft | 288 kts | 101° |
| 2026-05-06 21:04 | 50.20906 | 8.94872 | 6999 ft | 280 kts | 128° |
| 2026-05-06 21:04 | 50.19479 | 8.96852 | 6482 ft | 276 kts | 156° |
| 2026-05-06 21:05 | 50.17664 | 8.97458 | 6323 ft | 265 kts | 184° |
| 2026-05-06 21:05 | 50.15931 | 8.96760 | 6320 ft | 262 kts | 210° |
| 2026-05-06 21:05 | 50.14554 | 8.94902 | 6254 ft | 261 kts | 235° |
| 2026-05-06 21:05 | 50.13779 | 8.92357 | 5974 ft | 260 kts | 250° |
| 2026-05-06 21:06 | 50.13181 | 8.89731 | 5613 ft | 253 kts | 250° |
| 2026-05-06 21:06 | 50.12597 | 8.87198 | 5259 ft | 245 kts | 250° |
| 2026-05-06 21:06 | 50.12019 | 8.84741 | 4909 ft | 236 kts | 250° |
| 2026-05-06 21:06 | 50.11474 | 8.82433 | 4593 ft | 225 kts | 251° |
| 2026-05-06 21:07 | 50.10943 | 8.80180 | 4266 ft | 218 kts | 251° |
| 2026-05-06 21:07 | 50.10429 | 8.78003 | 3944 ft | 211 kts | 251° |
| 2026-05-06 21:07 | 50.09930 | 8.75892 | 3650 ft | 204 kts | 251° |
| 2026-05-06 21:07 | 50.09447 | 8.73847 | 3359 ft | 198 kts | 252° |
| 2026-05-06 21:08 | 50.08977 | 8.71862 | 3125 ft | 191 kts | 252° |
| 2026-05-06 21:08 | 50.08520 | 8.69932 | 2801 ft | 188 kts | 252° |
| 2026-05-06 21:08 | 50.08078 | 8.68072 | 2537 ft | 179 kts | 253° |
| 2026-05-06 21:08 | 50.07658 | 8.66304 | 2287 ft | 166 kts | 253° |
| 2026-05-06 21:09 | 50.07280 | 8.64716 | 2048 ft | 144 kts | 253° |
| 2026-05-06 21:09 | 50.06954 | 8.63347 | 1850 ft | 130 kts | 253° |
| 2026-05-06 21:09 | 50.06651 | 8.62066 | 1671 ft | 123 kts | 254° |
| 2026-05-06 21:09 | 50.06357 | 8.60828 | 1494 ft | 122 kts | 254° |
| 2026-05-06 21:10 | 50.06060 | 8.59582 | 1309 ft | 124 kts | 254° |
| 2026-05-06 21:10 | 50.05745 | 8.58360 | 1085 ft | 122 kts | 251° |
| 2026-05-06 21:10 | 50.05458 | 8.57100 | 887 ft | 121 kts | 251° |
| 2026-05-06 21:10 | 50.05180 | 8.55886 | 667 ft | 120 kts | 252° |
| 2026-05-06 21:11 | 50.04889 | 8.54673 | 563 ft | 121 kts | 250° |
| 2026-05-06 21:11 | 50.04596 | 8.53445 | 399 ft | 121 kts | 251° |
| 2026-05-06 21:11 | 50.04329 | 8.52314 | 343 ft | 75 kts | 248° |
| 2026-05-06 21:11 | 50.04202 | 8.51778 | 335 ft | 35 kts | 248° |
| 2026-05-06 21:12 | 50.04070 | 8.51493 | 333 ft | 25 kts | 222° |
| 2026-05-06 21:12 | 50.03977 | 8.51373 | 332 ft | 8 kts | 204° |
| 2026-05-06 21:12 | 50.03950 | 8.51360 | 335 ft | 1 kts | 188° |
| 2026-05-06 21:12 | 50.03936 | 8.51363 | 336 ft | 3 kts | 165° |
| 2026-05-06 21:13 | 50.03910 | 8.51401 | 336 ft | 7 kts | 111° |
| 2026-05-06 21:13 | 50.03920 | 8.51504 | 336 ft | 13 kts | 71° |
| 2026-05-06 21:13 | 50.03959 | 8.51661 | 335 ft | 19 kts | 69° |
| 2026-05-06 21:13 | 50.04010 | 8.51882 | 333 ft | 24 kts | 70° |
| 2026-05-06 21:14 | 50.04073 | 8.52147 | 346 ft | 23 kts | 69° |
| 2026-05-06 21:14 | 50.04137 | 8.52407 | 347 ft | 28 kts | 69° |
| 2026-05-06 21:14 | 50.04196 | 8.52655 | 349 ft | 24 kts | 70° |
| 2026-05-06 21:14 | 50.04256 | 8.52910 | 357 ft | 24 kts | 69° |
| 2026-05-06 21:15 | 50.04313 | 8.53144 | 363 ft | 21 kts | 69° |
| 2026-05-06 21:15 | 50.04357 | 8.53329 | 371 ft | 18 kts | 69° |
| 2026-05-06 21:15 | 50.04394 | 8.53520 | 375 ft | 19 kts | 80° |
| 2026-05-06 21:15 | 50.04412 | 8.53762 | 375 ft | 26 kts | 84° |
| 2026-05-06 21:16 | 50.04427 | 8.54003 | 375 ft | 21 kts | 84° |
| 2026-05-06 21:16 | 50.04445 | 8.54261 | 375 ft | 22 kts | 84° |
| 2026-05-06 21:16 | 50.04448 | 8.54504 | 368 ft | 26 kts | 101° |
| 2026-05-06 21:16 | 50.04354 | 8.54732 | 360 ft | 17 kts | 140° |
| 2026-05-06 21:17 | 50.04327 | 8.54760 | 358 ft | 0 kts | 150° |
| 2026-05-06 21:17 | 50.04313 | 8.54772 | 358 ft | 7 kts | 150° |
| 2026-05-06 21:17 | 50.04236 | 8.54816 | 355 ft | 17 kts | 163° |
| 2026-05-06 21:18 | 50.04135 | 8.54874 | 352 ft | 10 kts | 161° |
| 2026-05-06 21:18 | 50.04057 | 8.54918 | 355 ft | 8 kts | 161° |
| 2026-05-06 21:18 | 50.04014 | 8.54990 | 356 ft | 11 kts | 93° |
| 2026-05-06 21:18 | 50.04045 | 8.55129 | 357 ft | 16 kts | 70° |
| 2026-05-06 21:19 | 50.04087 | 8.55305 | 360 ft | 7 kts | 70° |
| 2026-05-06 21:19 | 50.04107 | 8.55391 | 352 ft | 12 kts | 71° |
| 2026-05-06 21:19 | 50.04143 | 8.55539 | 358 ft | 17 kts | 68° |
| 2026-05-06 21:19 | 50.04188 | 8.55724 | 357 ft | 20 kts | 62° |
| 2026-05-06 21:20 | 50.04234 | 8.55917 | 355 ft | 17 kts | 70° |
| 2026-05-06 21:20 | 50.04260 | 8.56022 | 360 ft | 11 kts | 63° |
| 2026-05-06 21:20 | 50.04338 | 8.56057 | 357 ft | 15 kts | 340° |
| 2026-05-06 21:20 | 50.04422 | 8.56017 | 359 ft | 3 kts | 331° |
| 2026-05-06 21:21 | 50.04451 | 8.55973 | 356 ft | 9 kts | 324° |
| 2026-05-06 21:21 | 50.04523 | 8.55988 | 356 ft | 14 kts | 20° |
| 2026-05-06 21:21 | 50.04575 | 8.56130 | 360 ft | 12 kts | 72° |
| 2026-05-06 21:21 | 50.04608 | 8.56266 | 361 ft | 15 kts | 69° |
| 2026-05-06 21:22 | 50.04647 | 8.56436 | 359 ft | 8 kts | 84° |
| 2026-05-06 21:22 | 50.04608 | 8.56526 | 360 ft | 11 kts | 118° |
| 2026-05-06 21:22 | 50.04582 | 8.56616 | 359 ft | 3 kts | 114° |
| 2026-05-06 21:22 | 50.04580 | 8.56624 | 358 ft | 1 kts | 114° |
| 2026-05-06 21:23 | 50.04578 | 8.56629 | 357 ft | 0 kts | 116° |